KUKT/UKT METAR and TAF weather

Enter ICAO airport designator
Station Type Date Time Source
KUKT METAR 2019/08/23 17:40 UTC NOAA

KUKT 231740Z AUTO 00000KT 10SM CLR 21/17 A3004 RMK A01


Station Type Date Time Source
KUKT Decoded METAR 2019/08/23 17:40 UTC NOAA

Station name not available
Aug 23, 2019 - 01:40 PM EDT / 2019.08.23 1740 UTC
Wind: Calm:0
Visibility: 10 mile(s):0
Sky conditions: clear
Temperature: 69 F (21 C)
Dew Point: 62 F (17 C)
Relative Humidity: 77%
Pressure (altimeter): 30.04 in. Hg (1017 hPa)
ob: KUKT 231740Z AUTO 00000KT 10SM CLR 21/17 A3004 RMK A01
cycle: 17

Station Type Date Time Source
KUKT TAF UTC NOAA

Error!

Example: see airport list